createdAt,value
2023-11-01T00:02:19.409Z,8.83
2023-11-01T00:07:21.275Z,11.43
2023-11-01T00:12:23.216Z,8.50
2023-11-01T00:17:27.698Z,10.30
2023-11-01T00:22:29.660Z,6.63
2023-11-01T00:27:34.022Z,5.93
2023-11-01T00:32:35.959Z,9.17
2023-11-01T00:37:37.859Z,9.27
2023-11-01T00:42:42.079Z,7.83
2023-11-01T00:47:44.061Z,10.20
2023-11-01T00:52:48.416Z,11.00
2023-11-01T00:57:50.526Z,10.90
2023-11-01T01:02:54.993Z,10.27
2023-11-01T01:07:57.854Z,12.53
2023-11-01T01:13:04.423Z,15.87
2023-11-01T01:18:06.612Z,11.40
2023-11-01T01:23:10.999Z,13.73
2023-11-01T01:28:12.924Z,16.07
2023-11-01T01:33:15.105Z,10.27
2023-11-01T01:38:17.002Z,12.33
2023-11-01T01:43:22.562Z,12.63
2023-11-01T01:48:24.806Z,15.37
2023-11-01T01:53:27.154Z,17.50
2023-11-01T01:58:31.744Z,17.50
2023-11-01T02:03:34.429Z,20.93
2023-11-01T02:08:38.780Z,15.93
2023-11-01T02:13:42.879Z,21.57
2023-11-01T02:18:45.036Z,18.53
2023-11-01T02:23:47.380Z,24.70
2023-11-01T02:28:51.712Z,30.70
2023-11-01T02:33:53.599Z,27.77
2023-11-01T02:38:55.978Z,31.80
2023-11-01T02:43:57.813Z,36.60
2023-11-01T02:49:00.328Z,33.67
2023-11-01T02:54:04.633Z,33.77
2023-11-01T02:59:06.437Z,33.23
2023-11-01T03:04:08.251Z,33.67
2023-11-01T03:09:12.335Z,36.87
2023-11-01T03:14:14.275Z,31.60
2023-11-01T03:19:18.629Z,36.30
2023-11-01T03:24:22.671Z,36.30
2023-11-01T03:29:24.941Z,32.97
2023-11-01T03:34:26.861Z,33.27
2023-11-01T03:39:28.670Z,39.03
2023-11-01T03:44:30.547Z,36.30
2023-11-01T03:49:32.459Z,39.27
2023-11-01T03:54:35.117Z,38.23
2023-11-01T03:59:37.094Z,40.27
2023-11-01T04:04:38.917Z,41.00
2023-11-01T04:09:42.949Z,40.53
2023-11-01T04:14:44.773Z,40.17
2023-11-01T04:19:46.755Z,37.93
2023-11-01T04:24:48.568Z,42.00
2023-11-01T04:29:55.384Z,41.13
2023-11-01T04:34:59.997Z,45.53
2023-11-01T04:40:04.175Z,46.57
2023-11-01T04:45:07.650Z,43.53
2023-11-01T04:50:12.363Z,48.60
2023-11-01T04:55:14.320Z,44.17
2023-11-01T05:00:17.918Z,42.50
2023-11-01T05:05:20.031Z,46.60
2023-11-01T05:10:21.869Z,45.90
2023-11-01T05:15:23.653Z,50.67
2023-11-01T05:20:25.911Z,54.47
2023-11-01T05:25:30.536Z,55.00
2023-11-01T05:30:32.706Z,49.60
2023-11-01T05:35:38.072Z,55.73
2023-11-01T05:40:40.489Z,60.53
2023-11-01T05:45:42.344Z,63.20
2023-11-01T05:50:47.369Z,61.47
2023-11-01T06:00:58.596Z,70.40
2023-11-01T06:06:02.939Z,69.87
2023-11-01T06:11:05.359Z,75.90
2023-11-01T06:16:09.919Z,65.28
2023-11-01T06:21:15.578Z,65.57
2023-11-01T06:26:22.078Z,63.08
2023-11-01T06:31:26.124Z,65.30
2023-11-01T06:36:28.224Z,71.87
2023-11-01T06:41:30.193Z,68.77
2023-11-01T06:46:32.090Z,72.97
2023-11-01T06:51:34.136Z,71.38
2023-11-01T06:56:36.007Z,74.27
2023-11-01T07:01:37.833Z,67.97
2023-11-01T07:06:39.813Z,65.53
2023-11-01T07:11:41.694Z,73.53
2023-11-01T07:16:46.720Z,73.50
2023-11-01T07:21:50.735Z,65.83
2023-11-01T07:26:55.358Z,65.47
2023-11-01T07:31:59.527Z,74.07
2023-11-01T07:37:01.434Z,67.80
2023-11-01T07:42:08.121Z,62.77
2023-11-01T07:47:09.995Z,64.15
2023-11-01T07:52:11.879Z,71.57
2023-11-01T07:57:13.765Z,64.10
2023-11-01T08:02:15.689Z,61.80
2023-11-01T08:07:18.035Z,56.80
2023-11-01T08:12:22.979Z,64.63
2023-11-01T08:17:24.837Z,55.00
2023-11-01T08:22:27.121Z,51.03
2023-11-01T08:27:29.806Z,50.25
2023-11-01T08:32:34.030Z,49.75
2023-11-01T08:37:36.821Z,46.15
2023-11-01T08:42:38.676Z,41.25
2023-11-01T08:47:44.164Z,43.78
2023-11-01T08:52:46.737Z,41.65
2023-11-01T08:57:48.594Z,44.20
2023-11-01T09:02:50.578Z,44.00
2023-11-01T09:07:52.498Z,44.42
2023-11-01T09:12:57.590Z,41.50
2023-11-01T09:18:01.831Z,40.88
2023-11-01T09:23:04.296Z,37.28
2023-11-01T09:28:08.335Z,35.90
2023-11-01T09:33:10.307Z,29.25
2023-11-01T09:38:12.301Z,30.77
2023-11-01T09:43:21.384Z,27.08
2023-11-01T09:48:24.136Z,33.95
2023-11-01T09:53:26.228Z,27.08
2023-11-01T09:58:30.356Z,27.50
2023-11-01T10:03:34.622Z,25.63
2023-11-01T10:08:36.762Z,26.60
2023-11-01T10:13:38.652Z,24.05
2023-11-01T10:18:41.209Z,28.23
2023-11-01T10:23:45.471Z,23.35
2023-11-01T10:28:47.380Z,23.38
2023-11-01T10:33:51.532Z,26.95
2023-11-01T10:38:57.494Z,26.33
2023-11-01T10:43:59.568Z,26.02
2023-11-01T10:49:05.277Z,24.65
2023-11-01T10:54:11.358Z,25.17
2023-11-01T10:59:36.006Z,18.85
2023-11-01T11:05:08.212Z,20.67
2023-11-01T11:10:35.851Z,20.40
2023-11-01T11:15:50.038Z,17.73
2023-11-01T11:20:57.084Z,18.33
2023-11-01T11:26:00.315Z,12.77
2023-11-01T11:31:06.713Z,11.43
2023-11-01T11:36:16.806Z,9.90
2023-11-01T11:41:25.664Z,9.93
2023-11-01T11:46:34.770Z,10.32
2023-11-01T11:51:37.866Z,8.88
2023-11-01T11:56:40.459Z,10.00
2023-11-01T12:01:42.390Z,10.82
2023-11-01T12:06:55.223Z,12.05
2023-11-01T12:12:10.303Z,13.15
2023-11-01T12:17:12.507Z,12.38
2023-11-01T12:22:15.582Z,18.00
2023-11-01T12:27:19.349Z,12.82
2023-11-01T12:32:28.470Z,21.25
2023-11-01T12:37:34.973Z,18.90
2023-11-01T12:42:38.506Z,17.85
2023-11-01T12:47:50.265Z,15.13
2023-11-01T12:52:52.633Z,22.52
2023-11-01T12:58:02.490Z,18.75
2023-11-01T13:03:04.684Z,20.92
2023-11-01T13:08:09.732Z,21.05
2023-11-01T13:13:16.196Z,18.77
2023-11-01T13:18:18.093Z,23.48
2023-11-01T13:23:20.252Z,14.55
2023-11-01T13:28:24.404Z,23.45
2023-11-01T13:33:26.315Z,19.05
2023-11-01T13:38:28.180Z,14.40
2023-11-01T13:43:30.139Z,20.33
2023-11-01T13:48:32.560Z,17.45
2023-11-01T13:53:34.609Z,16.02
2023-11-01T13:58:41.335Z,14.82
2023-11-01T14:03:44.234Z,16.27
2023-11-01T14:08:51.064Z,18.67
2023-11-01T14:13:56.363Z,18.58
2023-11-01T14:18:58.371Z,13.55
2023-11-01T14:24:00.251Z,15.10
2023-11-01T14:29:04.755Z,15.52
2023-11-01T14:34:06.854Z,15.52
2023-11-01T14:39:11.262Z,16.90
2023-11-01T14:44:13.408Z,16.02
2023-11-01T14:49:15.674Z,15.32
2023-11-01T14:54:17.886Z,14.80
2023-11-01T14:59:20.276Z,16.02
2023-11-01T15:04:22.769Z,13.40
2023-11-01T15:09:24.957Z,12.65
2023-11-01T15:14:27.010Z,11.88
2023-11-01T15:19:29.131Z,14.85
2023-11-01T15:24:31.309Z,15.77
2023-11-01T15:29:35.866Z,13.27
2023-11-01T15:34:39.120Z,13.00
2023-11-01T15:39:43.553Z,13.07
2023-11-01T15:44:45.899Z,13.07
2023-11-01T15:49:47.986Z,25.50
2023-11-01T15:54:52.984Z,18.75
2023-11-01T15:59:54.924Z,15.00
2023-11-01T16:05:01.877Z,22.00
2023-11-01T16:10:04.277Z,19.67
2023-11-01T16:15:14.873Z,17.55
2023-11-01T16:20:16.996Z,11.95
2023-11-01T16:25:21.288Z,11.20
2023-11-01T16:30:23.646Z,10.07
2023-11-01T16:35:26.950Z,11.13
2023-11-01T16:40:29.271Z,9.63
2023-11-01T16:45:35.768Z,12.77
2023-11-01T16:50:40.124Z,12.98
2023-11-01T16:55:42.114Z,13.32
2023-11-01T17:00:44.050Z,12.82
2023-11-01T17:05:46.083Z,13.50
2023-11-01T17:10:50.343Z,5.30
2023-11-01T17:15:57.160Z,9.70
2023-11-01T17:21:04.902Z,10.80
2023-11-01T17:26:26.288Z,13.40
2023-11-01T17:31:42.520Z,20.45
2023-11-01T17:36:44.521Z,12.90
2023-11-01T17:41:53.309Z,14.35
2023-11-01T17:47:09.074Z,11.35
2023-11-01T17:52:15.264Z,11.50
2023-11-01T17:57:19.362Z,8.85
2023-11-01T18:02:28.073Z,8.38
2023-11-01T18:07:32.739Z,6.57
2023-11-01T18:12:36.974Z,12.60
2023-11-01T18:17:39.277Z,7.18
2023-11-01T18:22:42.432Z,13.27
2023-11-01T18:27:46.604Z,10.90
2023-11-01T18:32:48.904Z,11.48
2023-11-01T18:37:52.814Z,9.85
2023-11-01T18:42:58.757Z,10.30
2023-11-01T18:48:00.765Z,8.57
2023-11-01T18:53:06.063Z,8.38
2023-11-01T18:58:08.089Z,6.43
2023-11-01T19:03:12.056Z,7.95
2023-11-01T19:08:21.846Z,8.88
2023-11-01T19:13:24.641Z,8.93
2023-11-01T19:18:26.712Z,10.35
2023-11-01T19:23:29.073Z,12.30
2023-11-01T19:28:32.059Z,10.30
2023-11-01T19:33:34.504Z,8.25
2023-11-01T19:38:45.052Z,10.48
2023-11-01T19:43:47.283Z,6.80
2023-11-01T19:48:52.243Z,7.65
2023-11-01T19:53:54.345Z,9.68
2023-11-01T19:59:13.587Z,10.57
2023-11-01T20:04:36.391Z,4.15
2023-11-01T20:09:51.214Z,6.28
2023-11-01T20:14:59.514Z,5.60
2023-11-01T20:20:07.998Z,5.63
2023-11-01T20:25:12.014Z,4.90
2023-11-01T20:30:16.996Z,8.27
2023-11-01T20:35:18.966Z,7.45
2023-11-01T20:40:23.228Z,6.50
2023-11-01T20:45:31.643Z,5.82
2023-11-01T20:50:33.712Z,6.78
2023-11-01T20:55:39.210Z,9.77
2023-11-01T21:00:44.330Z,5.18
2023-11-01T21:05:48.704Z,6.00
2023-11-01T21:10:50.694Z,3.70
2023-11-01T21:15:58.495Z,5.85
2023-11-01T21:21:02.020Z,7.03
2023-11-01T21:26:09.181Z,4.45
2023-11-01T21:31:13.700Z,3.00
2023-11-01T21:36:15.558Z,5.15
2023-11-01T21:41:17.557Z,4.40
2023-11-01T21:46:19.656Z,5.88
2023-11-01T21:51:24.525Z,6.30
2023-11-01T21:56:33.580Z,5.05
2023-11-01T22:01:35.888Z,6.13
2023-11-01T22:06:38.114Z,6.05
2023-11-01T22:11:46.110Z,7.15
2023-11-01T22:16:48.105Z,5.38
2023-11-01T22:21:52.509Z,4.97
2023-11-01T22:26:58.581Z,5.25
2023-11-01T22:32:05.005Z,3.92
2023-11-01T22:37:06.886Z,8.38
2023-11-01T22:42:34.354Z,6.05
2023-11-01T22:47:38.650Z,5.72
2023-11-01T22:52:42.898Z,7.53
2023-11-01T22:57:47.768Z,8.43
2023-11-01T23:02:54.482Z,5.70
2023-11-01T23:07:57.496Z,9.02
2023-11-01T23:13:01.644Z,8.23
2023-11-01T23:18:04.594Z,8.27
2023-11-01T23:23:06.505Z,8.52
2023-11-01T23:28:26.889Z,7.32
2023-11-01T23:33:38.708Z,8.77
2023-11-01T23:38:45.413Z,7.45
2023-11-01T23:43:47.389Z,7.38
2023-11-01T23:48:50.817Z,6.30
2023-11-01T23:53:55.050Z,6.38
2023-11-01T23:58:56.978Z,5.22
